Terminal Aerodrome Forecast
Issued by NWS Central Illinois

Home | Current Version | Previous Version | Text Only | Print | Product List | Glossary On
Versions: 1 2 3 4 5 6 7 8 9 10 11 12 13 14 15 16 17 18
000
FTUS43 KILX 010500
TAFSPI
TAF
KSPI 010528Z 0106/0206 11004KT 1SM -SN BR OVC012
      TEMPO 0106/0108 3/4SM -SN BR OVC008
     FM011400 VRB03KT 4SM -SN BR OVC025
     FM012000 30005KT P6SM OVC025
     FM020300 31008KT P6SM SCT025 BKN200=

USA.gov is the U.S. government's official web portal to all federal, state and local government web resources and services.